Etusivu
METAR-TAF:

METAR-TAF

Lentoasemat :

Pjongjang, Pohjois-Korea

Sunanin kansainvälinen lentoasema

Leveyspiiri: 39-02N, Pituuspiiri: 125-47E, korkeus merenpinnasta: 36 m

METAR: puuttuu

Aika: 00:22 (15:52 UTC)

Sääennuste

Tämä raportti tehtiin 11 tuntia ja 2 minuuttia sitten, kello 04.50 UTC
Ennuste voimassa 21. päivästä klo 06 UTC - 22. päivään klo 06 UTC
Tuuli 8 kn lännestä/luoteesta
Näkyvyys 10 km tai enemmän
Hajanaisia pilviä 2000 ft:n korkeudessa
Tulossa
21. päivästä klo 10 UTC - 21. päivään klo 12 UTC
Tuuli 6 kn lounaasta
Näkyvyys 10 km tai enemmän
ei pilviä alle 1500 m:ssä eikä cumulonimbus-pilviä
Ajoittain
21. päivästä klo 18 UTC - 21. päivään klo 24 UTC
Näkyvyys: 0500 m
sumua

TAF: ZKPY 210450Z 2106/2206 29004MPS 9999 SCT020 BECMG 2110/2112 23003MPS CAVOK TEMPO 2118/2124 0500 FG TX25/2106Z TN12/2121Z

Säähavainnot ja -ennusteet yli 4000 lentoasemalta (METAR- ja TAF-raportit).

Käytössä olevat sääasemat on merkitty karttaan keltaisilla ja punaisilla pisteillä.

Aseta hiiri pisteen päälle nähdäksesi sääaseman nimen.

Klikkaa sitten nähdäksesi säähavainnot ja -ennusteet.

Kartan vaihtaminen: klikkaa mustalla rastilla varustettuja vihreitä pisteitä, niin voit zoomata sisään; viivalla varustettua vihreää pistettä, niin voit zoomata ulos tai vihreitä nuolia, niin pääset viereisille kartoille.


METAR-TAF: